Time;durP1;ratioP1;P1;durP2;ratioP2;P2;SDS_P1;SDS_P2;PMS_P1;PMS_P2;Temp;Humidity;BMP_temperature;BMP_pressure;BME280_temperature;BME280_humidity;BME280_pressure;Samples;Min_cycle;Max_cycle;Signal;HPM_P1;HPM_P2
2022/01/18 00:01:53;;;;;;;42.83;6.55;;;4.20;99.90;;;;;;5072064;28;20044;-74
2022/01/18 00:04:20;;;;;;;43.83;8.65;;;4.30;99.90;;;;;;5057542;28;20648;-74
2022/01/18 00:06:50;;;;;;;36.60;6.80;;;4.30;99.90;;;;;;5074113;28;20048;-74
2022/01/18 00:09:20;;;;;;;50.08;6.97;;;4.40;99.90;;;;;;5057594;28;20040;-73
2022/01/18 00:11:52;;;;;;;95.88;9.60;;;4.40;99.90;;;;;;5073346;28;20040;-73
2022/01/18 00:15:17;;;;;;;70.30;6.25;;;4.30;99.90;;;;;;5057463;28;20051;-73
2022/01/18 00:19:46;;;;;;;39.10;5.70;;;3.90;99.90;;;;;;5073873;28;20495;-73
2022/01/18 00:22:13;;;;;;;36.22;6.93;;;3.80;99.90;;;;;;5074111;28;20400;-73
2022/01/18 00:24:41;;;;;;;39.35;5.70;;;3.80;99.90;;;;;;5074369;28;20479;-73
2022/01/18 00:27:13;;;;;;;43.75;6.10;;;3.90;99.90;;;;;;5073805;28;20511;-73
2022/01/18 00:29:47;;;;;;;37.40;5.80;;;3.90;99.90;;;;;;5034435;28;20041;-74
2022/01/18 00:32:45;;;;;;;33.65;6.80;;;4.00;99.90;;;;;;5048074;28;20068;-74
2022/01/18 00:35:11;;;;;;;29.73;5.10;;;4.00;99.90;;;;;;5050810;28;20369;-73
2022/01/18 00:37:40;;;;;;;41.17;6.50;;;4.00;99.90;;;;;;5033780;28;20060;-74
2022/01/18 00:40:07;;;;;;;59.97;9.43;;;4.00;99.90;;;;;;5033883;28;20171;-73
2022/01/18 00:42:33;;;;;;;50.88;8.40;;;4.00;99.90;;;;;;5033910;28;20408;-74
2022/01/18 00:44:59;;;;;;;51.70;7.10;;;4.10;99.90;;;;;;5050751;28;20390;-74
2022/01/18 00:47:25;;;;;;;43.33;6.75;;;4.10;99.90;;;;;;5033690;28;20110;-74
2022/01/18 00:49:59;;;;;;;35.58;6.38;;;4.20;99.90;;;;;;5033773;28;20045;-74
2022/01/18 00:52:26;;;;;;;37.78;5.65;;;4.20;99.90;;;;;;5033968;28;20100;-74
2022/01/18 00:54:52;;;;;;;37.42;6.20;;;4.10;99.90;;;;;;5050365;28;20044;-74
2022/01/18 00:57:18;;;;;;;37.15;6.68;;;4.10;99.90;;;;;;5033877;28;20053;-74
2022/01/18 00:59:46;;;;;;;29.27;6.72;;;4.10;99.90;;;;;;5033651;28;20516;-74
2022/01/18 01:02:13;;;;;;;43.95;7.60;;;4.00;99.90;;;;;;5031093;28;20040;-74
2022/01/18 01:04:47;;;;;;;41.78;9.23;;;4.10;99.90;;;;;;5033927;28;20056;-74
2022/01/18 01:07:15;;;;;;;41.08;7.32;;;4.10;99.90;;;;;;5033848;28;20379;-74
2022/01/18 01:09:41;;;;;;;51.85;9.05;;;4.00;99.90;;;;;;5033911;28;20040;-74
2022/01/18 01:12:07;;;;;;;45.72;9.02;;;4.10;99.90;;;;;;5033488;28;20492;-74
2022/01/18 01:14:34;;;;;;;47.47;8.07;;;4.10;99.90;;;;;;5033833;28;20096;-74
2022/01/18 01:17:13;;;;;;;41.10;7.93;;;4.10;99.90;;;;;;5033464;28;20098;-74
2022/01/18 01:32:13;;;;;;;48.38;7.38;;;4.10;99.90;;;;;;5034494;28;20041;-74
2022/01/18 01:34:10;;;;;;;42.75;7.82;;;4.10;99.90;;;;;;5076897;28;20567;-74
2022/01/18 01:42:01;;;;;;;46.78;8.18;;;4.00;99.90;;;;;;5077024;28;20039;-74
2022/01/18 01:44:40;;;;;;;45.33;7.05;;;4.00;99.90;;;;;;5077138;28;20450;-74
2022/01/18 01:47:06;;;;;;;61.08;8.85;;;4.00;99.90;;;;;;5076945;28;20039;-74
2022/01/18 01:49:32;;;;;;;47.80;7.97;;;4.00;99.90;;;;;;5076739;28;20047;-74
2022/01/18 01:51:58;;;;;;;54.90;9.10;;;4.00;99.90;;;;;;5060225;28;20040;-74
2022/01/18 01:54:23;;;;;;;53.90;9.27;;;4.10;99.90;;;;;;5060008;28;20407;-74
2022/01/18 01:56:49;;;;;;;48.33;9.15;;;4.10;99.90;;;;;;5076833;28;20047;-73
2022/01/18 01:59:15;;;;;;;52.10;9.90;;;4.10;99.90;;;;;;5076962;28;20085;-74
2022/01/18 02:01:44;;;;;;;55.30;8.63;;;4.10;99.90;;;;;;5073981;28;20389;-74
2022/01/18 02:04:11;;;;;;;54.50;9.30;;;4.10;99.90;;;;;;5059837;28;20043;-74
2022/01/18 02:06:37;;;;;;;39.75;9.35;;;4.10;99.90;;;;;;5059854;28;20051;-74
2022/01/18 02:09:04;;;;;;;112.80;14.85;;;4.20;99.90;;;;;;5060072;28;20443;-74
2022/01/18 02:11:30;;;;;;;39.08;8.93;;;4.20;99.90;;;;;;5076554;28;20455;-74
2022/01/18 02:13:56;;;;;;;60.58;10.77;;;4.10;99.90;;;;;;5059955;28;20044;-74
2022/01/18 02:21:51;;;;;;;46.67;9.38;;;4.10;99.90;;;;;;5075886;28;20060;-73
2022/01/18 02:24:20;;;;;;;95.28;13.73;;;4.10;99.90;;;;;;5059471;28;20400;-73
2022/01/18 02:26:47;;;;;;;42.70;8.38;;;4.10;99.90;;;;;;5076055;28;20040;-73
2022/01/18 02:29:14;;;;;;;105.65;14.73;;;4.00;99.90;;;;;;5042984;28;20041;-73
2022/01/18 02:31:40;;;;;;;59.22;9.80;;;4.10;99.90;;;;;;5037126;28;20040;-74
2022/01/18 02:34:13;;;;;;;49.78;7.25;;;4.00;99.90;;;;;;5038815;28;20076;-74
2022/01/18 02:36:40;;;;;;;44.97;7.47;;;4.00;99.90;;;;;;5056179;28;20127;-74
2022/01/18 02:39:08;;;;;;;41.10;7.38;;;4.00;99.90;;;;;;5055775;28;20732;-73
2022/01/18 02:41:34;;;;;;;44.38;8.52;;;4.00;99.90;;;;;;5039195;28;20094;-74
2022/01/18 02:44:07;;;;;;;59.95;8.98;;;4.00;99.90;;;;;;5039012;28;20076;-73
2022/01/18 02:46:33;;;;;;;60.35;9.35;;;4.10;99.90;;;;;;5039110;28;20032;-73
2022/01/18 02:49:01;;;;;;;159.80;16.00;;;4.10;99.90;;;;;;5038969;28;20127;-73
2022/01/18 02:51:27;;;;;;;245.52;19.52;;;4.20;99.90;;;;;;5055581;28;20091;-73
2022/01/18 02:53:55;;;;;;;138.63;12.57;;;4.20;99.90;;;;;;5055486;28;20051;-73
2022/01/18 02:56:23;;;;;;;221.65;16.05;;;4.20;99.90;;;;;;5039248;28;20400;-73
2022/01/18 02:58:48;;;;;;;136.85;12.68;;;4.20;99.90;;;;;;5038668;28;20082;-73
2022/01/18 03:03:58;;;;;;;74.22;10.20;;;4.30;99.90;;;;;;5055108;28;20443;-73
2022/01/18 03:06:24;;;;;;;60.30;9.90;;;4.40;99.90;;;;;;5038929;28;20090;-73
2022/01/18 03:08:50;;;;;;;63.00;10.88;;;4.40;99.90;;;;;;5055070;28;20043;-73
2022/01/18 03:11:15;;;;;;;63.97;10.60;;;4.40;99.90;;;;;;5038496;28;20048;-73
2022/01/18 03:13:41;;;;;;;105.70;13.15;;;4.50;99.90;;;;;;5055057;28;20075;-73
2022/01/18 03:16:07;;;;;;;73.35;13.02;;;4.50;99.90;;;;;;5055062;28;20044;-73
2022/01/18 03:18:32;;;;;;;66.40;10.93;;;4.50;99.90;;;;;;5054988;28;20036;-73
2022/01/18 03:20:58;;;;;;;173.75;17.00;;;4.60;99.90;;;;;;5066777;28;20060;-73
2022/01/18 03:23:24;;;;;;;66.65;11.88;;;4.60;99.90;;;;;;5074777;28;20043;-73
2022/01/18 03:25:58;;;;;;;49.30;9.63;;;4.60;99.90;;;;;;5058537;28;20392;-73
2022/01/18 03:28:26;;;;;;;63.17;11.68;;;4.70;99.90;;;;;;5058530;28;20503;-73
2022/01/18 03:30:58;;;;;;;54.78;10.57;;;4.70;99.90;;;;;;5058193;28;20115;-73
2022/01/18 03:33:26;;;;;;;53.28;11.45;;;4.80;99.90;;;;;;5072260;28;20065;-73
2022/01/18 03:35:55;;;;;;;85.93;14.30;;;4.80;99.90;;;;;;5058330;28;20043;-73
2022/01/18 03:38:22;;;;;;;159.95;19.65;;;4.80;99.90;;;;;;5074911;28;20123;-73
2022/01/18 03:40:48;;;;;;;82.18;13.35;;;4.80;99.90;;;;;;5058412;28;20369;-73
2022/01/18 03:43:14;;;;;;;47.88;9.88;;;4.80;99.90;;;;;;5057839;28;20040;-73
2022/01/18 03:45:44;;;;;;;119.13;16.10;;;4.70;99.90;;;;;;5073697;28;20048;-73
2022/01/18 03:48:25;;;;;;;32.13;8.43;;;4.70;99.90;;;;;;5074439;28;20050;-73
2022/01/18 03:50:51;;;;;;;30.33;8.50;;;4.60;99.90;;;;;;5057718;28;20047;-73
2022/01/18 03:53:19;;;;;;;27.23;9.18;;;4.60;99.90;;;;;;5057948;28;20039;-73
2022/01/18 03:55:45;;;;;;;28.27;8.00;;;4.50;99.90;;;;;;5057718;28;20047;-73
2022/01/18 03:58:11;;;;;;;34.83;10.13;;;4.50;99.90;;;;;;5074495;28;20044;-73
2022/01/18 04:00:36;;;;;;;26.83;9.40;;;4.50;99.90;;;;;;5057922;28;20032;-73
2022/01/18 04:03:02;;;;;;;38.75;10.90;;;4.60;99.90;;;;;;5055246;28;20435;-73
2022/01/18 04:05:28;;;;;;;54.25;12.52;;;4.60;99.90;;;;;;5057499;28;20479;-73
2022/01/18 04:07:54;;;;;;;61.15;14.38;;;4.60;99.90;;;;;;5057617;28;20035;-73
2022/01/18 04:10:20;;;;;;;51.70;12.00;;;4.60;99.90;;;;;;5057440;28;20119;-73
2022/01/18 04:12:46;;;;;;;28.00;10.30;;;4.70;99.90;;;;;;5057799;28;20064;-73
2022/01/18 04:15:14;;;;;;;24.98;9.25;;;4.70;99.90;;;;;;5057721;28;20205;-73
2022/01/18 04:30:42;;;;;;;20.30;8.05;;;4.80;99.90;;;;;;5073902;28;20048;-73
2022/01/18 04:33:08;;;;;;;27.00;8.50;;;4.90;99.90;;;;;;5054767;28;20086;-74
2022/01/18 04:35:34;;;;;;;34.45;10.13;;;4.90;99.90;;;;;;5073913;28;20090;-73
2022/01/18 04:38:00;;;;;;;34.05;10.27;;;4.90;99.90;;;;;;5074146;28;20083;-73
2022/01/18 04:40:29;;;;;;;36.42;9.75;;;4.90;99.90;;;;;;5074030;28;20054;-73
2022/01/18 04:43:04;;;;;;;32.22;9.13;;;5.00;99.90;;;;;;5057042;28;20043;-73
2022/01/18 04:48:26;;;;;;;32.33;8.05;;;5.00;99.90;;;;;;5073993;28;20125;-73
2022/01/18 04:50:53;;;;;;;29.63;7.72;;;5.10;99.90;;;;;;5073789;28;20564;-73
2022/01/18 04:53:19;;;;;;;39.50;9.73;;;5.10;99.90;;;;;;5056898;28;20040;-75
2022/01/18 04:55:45;;;;;;;25.77;9.52;;;5.20;99.90;;;;;;5057255;28;20118;-72
2022/01/18 04:58:11;;;;;;;27.83;7.60;;;5.20;99.90;;;;;;5059485;28;20463;-73
2022/01/18 05:00:37;;;;;;;30.77;8.57;;;5.20;99.90;;;;;;5061384;28;20048;-74
2022/01/18 05:03:03;;;;;;;32.80;10.07;;;5.20;99.90;;;;;;5058475;28;20518;-74
2022/01/18 05:05:33;;;;;;;39.63;9.52;;;5.30;99.90;;;;;;5060856;28;20108;-74
2022/01/18 05:08:01;;;;;;;38.88;9.70;;;5.30;99.90;;;;;;5061043;28;20444;-74
2022/01/18 05:10:29;;;;;;;30.30;8.75;;;5.30;99.90;;;;;;5060829;28;20043;-72
2022/01/18 05:12:57;;;;;;;33.30;7.93;;;5.30;99.90;;;;;;5071343;28;20086;-73
2022/01/18 05:23:03;;;;;;;23.00;7.50;;;5.40;99.90;;;;;;5074332;28;20037;-73
2022/01/18 05:25:30;;;;;;;29.08;7.15;;;5.40;99.90;;;;;;5057236;28;20101;-73
2022/01/18 05:27:57;;;;;;;22.20;8.68;;;5.40;99.90;;;;;;5071537;28;20059;-73
2022/01/18 05:30:24;;;;;;;22.85;7.50;;;5.40;99.90;;;;;;5040640;28;20037;-73
2022/01/18 05:32:50;;;;;;;29.90;8.68;;;5.40;99.90;;;;;;5054722;28;20083;-73
2022/01/18 05:35:15;;;;;;;25.80;7.43;;;5.40;99.90;;;;;;5040222;28;20045;-73
2022/01/18 05:37:41;;;;;;;38.75;8.95;;;5.40;99.90;;;;;;5056965;28;20055;-73
2022/01/18 05:40:08;;;;;;;27.30;7.53;;;5.40;99.90;;;;;;5057087;28;20079;-73
2022/01/18 05:42:33;;;;;;;24.25;8.52;;;5.40;99.90;;;;;;5056860;28;20503;-73
2022/01/18 05:44:59;;;;;;;22.70;7.60;;;5.40;99.90;;;;;;5056733;28;20040;-73
2022/01/18 05:47:26;;;;;;;29.02;7.63;;;5.40;99.90;;;;;;5056824;28;20079;-73
2022/01/18 05:49:52;;;;;;;28.83;7.45;;;5.50;99.90;;;;;;5056811;28;20097;-73
2022/01/18 05:52:18;;;;;;;22.10;7.30;;;5.40;99.90;;;;;;5056981;28;20040;-73
2022/01/18 05:54:43;;;;;;;34.75;8.70;;;5.50;99.90;;;;;;5056561;28;20412;-73
2022/01/18 05:57:09;;;;;;;21.77;7.78;;;5.50;99.90;;;;;;5040349;28;20047;-73
2022/01/18 05:59:38;;;;;;;27.40;8.30;;;5.50;99.90;;;;;;5056721;28;20450;-73
2022/01/18 06:02:15;;;;;;;30.67;7.90;;;5.50;99.90;;;;;;5037459;28;20072;-73
2022/01/18 06:07:26;;;;;;;19.13;6.95;;;5.50;99.90;;;;;;5056447;28;20044;-73
2022/01/18 06:09:58;;;;;;;22.98;7.57;;;5.50;99.90;;;;;;5055208;28;20039;-73
2022/01/18 06:12:26;;;;;;;24.13;6.93;;;5.40;99.90;;;;;;5056366;28;20079;-73
2022/01/18 06:14:52;;;;;;;22.48;6.20;;;5.40;99.90;;;;;;5056431;28;20126;-73
2022/01/18 06:17:18;;;;;;;72.88;11.95;;;5.40;99.90;;;;;;5056257;28;20492;-73
2022/01/18 06:19:44;;;;;;;26.50;7.53;;;5.30;99.90;;;;;;5040835;28;20036;-73
2022/01/18 06:22:10;;;;;;;26.25;8.48;;;5.20;99.90;;;;;;5056545;28;20092;-73
2022/01/18 06:24:37;;;;;;;25.13;6.53;;;5.20;99.90;;;;;;5056046;28;20049;-73
2022/01/18 06:27:03;;;;;;;40.22;10.57;;;5.20;99.90;;;;;;5039770;28;20033;-73
2022/01/18 06:29:28;;;;;;;34.75;8.43;;;5.10;99.90;;;;;;5039185;28;20047;-73
2022/01/18 06:31:54;;;;;;;20.05;6.53;;;5.10;99.90;;;;;;5054052;28;20044;-73
2022/01/18 06:34:20;;;;;;;28.75;7.43;;;5.10;99.90;;;;;;5055845;28;20404;-73
2022/01/18 06:36:46;;;;;;;34.08;7.80;;;5.00;99.90;;;;;;5039466;28;20040;-73
2022/01/18 06:39:11;;;;;;;32.30;7.70;;;5.00;99.90;;;;;;5055766;28;20040;-73
2022/01/18 06:41:38;;;;;;;28.13;8.13;;;5.00;99.90;;;;;;5055683;28;20048;-73
2022/01/18 06:44:04;;;;;;;23.90;6.28;;;5.00;99.90;;;;;;5039070;28;20076;-73
2022/01/18 06:46:31;;;;;;;27.08;8.65;;;5.00;99.90;;;;;;5055870;28;20079;-73
2022/01/18 06:48:57;;;;;;;18.15;7.38;;;5.00;99.90;;;;;;5039120;28;20037;-73
2022/01/18 06:51:22;;;;;;;32.92;7.70;;;5.10;99.90;;;;;;5038836;28;20053;-73
2022/01/18 06:53:49;;;;;;;25.17;8.05;;;5.00;99.90;;;;;;5039319;28;20036;-73
2022/01/18 06:56:16;;;;;;;27.15;7.75;;;5.10;99.90;;;;;;5055706;28;20500;-73
2022/01/18 06:58:43;;;;;;;21.23;8.30;;;5.10;99.90;;;;;;5038865;28;20040;-73
2022/01/18 07:01:10;;;;;;;27.80;8.98;;;5.10;99.90;;;;;;5055543;28;20143;-73
2022/01/18 07:03:37;;;;;;;33.13;8.90;;;5.10;99.90;;;;;;5052793;28;20046;-73
2022/01/18 07:06:03;;;;;;;25.48;9.25;;;5.10;99.90;;;;;;5038897;28;20080;-73
2022/01/18 07:08:30;;;;;;;34.50;9.63;;;5.20;99.90;;;;;;5055236;28;20048;-73
2022/01/18 07:10:56;;;;;;;31.83;9.48;;;5.20;99.90;;;;;;5055330;28;20446;-73
2022/01/18 07:13:22;;;;;;;35.95;11.40;;;5.20;99.90;;;;;;5055347;28;20463;-73
2022/01/18 07:15:48;;;;;;;33.58;10.02;;;5.20;99.90;;;;;;5038400;28;20080;-73
2022/01/18 07:18:14;;;;;;;26.60;8.35;;;5.20;99.90;;;;;;5038404;28;20087;-73
2022/01/18 07:20:41;;;;;;;33.78;10.32;;;5.20;99.90;;;;;;5062497;28;20143;-73
2022/01/18 07:23:11;;;;;;;34.35;10.75;;;5.30;99.90;;;;;;5075991;28;20063;-73
2022/01/18 07:25:46;;;;;;;25.83;8.00;;;5.30;99.90;;;;;;5075828;28;20040;-73
2022/01/18 07:28:16;;;;;;;24.85;8.38;;;5.30;99.90;;;;;;5059591;28;20069;-73
2022/01/18 07:30:42;;;;;;;24.48;8.10;;;5.40;99.90;;;;;;5075736;28;20043;-73
2022/01/18 07:33:09;;;;;;;34.55;10.00;;;5.40;99.90;;;;;;5057662;28;20040;-73
2022/01/18 07:35:35;;;;;;;29.55;7.20;;;5.40;99.90;;;;;;5075945;28;20050;-73
2022/01/18 07:38:02;;;;;;;23.30;7.43;;;5.40;99.90;;;;;;5075719;28;20036;-72
2022/01/18 07:40:29;;;;;;;26.38;6.90;;;5.40;99.90;;;;;;5058067;28;20044;-73
2022/01/18 07:42:55;;;;;;;29.75;7.07;;;5.40;99.90;;;;;;5074494;28;20047;-73
2022/01/18 07:45:22;;;;;;;26.08;7.03;;;5.40;99.90;;;;;;5074572;28;20036;-73
2022/01/18 07:47:48;;;;;;;20.65;7.05;;;5.40;99.90;;;;;;5074882;28;20404;-73
2022/01/18 07:50:15;;;;;;;21.92;6.25;;;5.50;99.90;;;;;;5058119;28;20377;-73
2022/01/18 07:52:41;;;;;;;17.88;5.57;;;5.50;99.90;;;;;;5074336;28;20044;-73
2022/01/18 07:55:08;;;;;;;21.52;6.00;;;5.50;99.90;;;;;;5074658;28;20047;-72
2022/01/18 07:57:40;;;;;;;28.45;7.72;;;5.50;99.90;;;;;;5074353;28;20047;-73
2022/01/18 08:00:07;;;;;;;21.77;10.05;;;5.50;99.90;;;;;;5054815;28;20076;-72
2022/01/18 08:02:34;;;;;;;20.67;7.95;;;5.60;99.90;;;;;;5055390;28;20096;-72
2022/01/18 08:04:59;;;;;;;23.70;7.20;;;5.50;99.90;;;;;;5074257;28;20573;-73
2022/01/18 08:07:25;;;;;;;20.45;7.85;;;5.60;99.90;;;;;;5057513;28;20094;-71
2022/01/18 08:09:51;;;;;;;43.95;24.08;;;5.60;99.90;;;;;;5074196;28;20044;-71
2022/01/18 08:12:17;;;;;;;27.73;10.05;;;5.70;99.90;;;;;;5057393;28;20118;-73
2022/01/18 08:14:46;;;;;;;30.70;8.57;;;5.70;99.90;;;;;;5074152;28;20609;-73
2022/01/18 08:17:12;;;;;;;20.48;7.72;;;5.70;99.90;;;;;;5057483;28;20047;-72
2022/01/18 08:19:38;;;;;;;20.95;8.20;;;5.70;99.90;;;;;;5074147;28;20123;-72
2022/01/18 08:22:04;;;;;;;24.27;10.30;;;5.70;99.90;;;;;;5073791;28;20052;-72
2022/01/18 08:24:30;;;;;;;18.17;6.10;;;5.70;99.90;;;;;;5057253;28;20044;-72
2022/01/18 08:26:56;;;;;;;20.20;5.63;;;5.70;99.90;;;;;;5057297;28;20044;-72
2022/01/18 08:29:22;;;;;;;15.57;5.68;;;5.70;99.90;;;;;;5057512;28;20046;-72
2022/01/18 08:31:48;;;;;;;18.58;4.68;;;5.80;99.90;;;;;;5071129;28;20174;-72
2022/01/18 08:34:14;;;;;;;20.38;6.10;;;5.80;99.90;;;;;;5073922;28;20123;-72
2022/01/18 08:36:40;;;;;;;22.10;6.13;;;5.90;99.90;;;;;;5067817;28;20458;-72
2022/01/18 08:39:07;;;;;;;19.27;5.85;;;5.90;99.90;;;;;;5073708;28;20028;-72
2022/01/18 08:41:33;;;;;;;20.08;5.25;;;5.90;99.90;;;;;;5073940;28;20377;-72
2022/01/18 08:44:01;;;;;;;20.13;5.18;;;6.00;99.90;;;;;;5057001;28;20044;-72
2022/01/18 08:46:28;;;;;;;23.05;5.05;;;6.00;99.90;;;;;;5073604;28;20511;-73
2022/01/18 08:48:54;;;;;;;22.30;5.43;;;6.00;99.90;;;;;;5060158;28;20064;-73
2022/01/18 08:51:20;;;;;;;25.42;6.35;;;6.00;99.90;;;;;;5073484;28;20075;-73
2022/01/18 08:53:50;;;;;;;22.10;6.85;;;6.00;99.90;;;;;;5072592;28;20101;-73
2022/01/18 08:56:20;;;;;;;18.93;6.70;;;6.10;99.90;;;;;;5090726;28;20131;-73
2022/01/18 08:58:47;;;;;;;25.02;6.22;;;6.10;99.90;;;;;;5090637;28;20293;-73
2022/01/18 09:01:13;;;;;;;19.52;7.00;;;6.10;99.90;;;;;;5091209;28;20123;-73
2022/01/18 09:03:39;;;;;;;30.40;7.63;;;6.00;99.90;;;;;;5071832;28;20043;-73
2022/01/18 09:06:06;;;;;;;24.40;8.63;;;6.00;99.90;;;;;;5074827;28;20376;-73
2022/01/18 09:08:35;;;;;;;21.75;9.57;;;6.00;99.90;;;;;;5091737;28;20082;-73
2022/01/18 09:11:02;;;;;;;33.95;10.20;;;6.00;99.90;;;;;;5090495;28;20036;-72
2022/01/18 09:13:28;;;;;;;38.72;11.88;;;6.00;99.90;;;;;;5073502;28;20127;-72
2022/01/18 09:15:55;;;;;;;27.75;11.65;;;6.00;99.90;;;;;;5090760;28;20457;-73
2022/01/18 09:18:21;;;;;;;31.13;11.70;;;6.00;99.90;;;;;;5090520;28;20067;-73
2022/01/18 09:20:47;;;;;;;38.80;13.95;;;6.10;99.90;;;;;;5090456;28;20488;-75
2022/01/18 09:23:13;;;;;;;31.17;11.98;;;6.10;99.90;;;;;;5073344;28;20044;-74
2022/01/18 09:25:39;;;;;;;27.23;11.30;;;6.10;99.90;;;;;;5090379;28;20234;-74
2022/01/18 09:28:05;;;;;;;33.35;11.65;;;6.10;99.90;;;;;;5069716;28;20040;-74
2022/01/18 09:30:33;;;;;;;30.33;10.02;;;6.10;99.90;;;;;;5073610;28;20036;-72
2022/01/18 09:32:59;;;;;;;20.48;7.53;;;6.20;99.90;;;;;;5070921;28;20396;-73
2022/01/18 09:35:25;;;;;;;21.38;8.15;;;6.20;99.90;;;;;;5056938;28;20055;-73
2022/01/18 09:37:51;;;;;;;17.92;7.32;;;6.20;99.90;;;;;;5073689;28;20204;-73
2022/01/18 09:40:19;;;;;;;13.73;6.40;;;6.30;99.90;;;;;;5056701;28;20065;-73
2022/01/18 09:42:47;;;;;;;15.35;5.93;;;6.30;99.90;;;;;;5056408;28;20492;-73
2022/01/18 09:45:16;;;;;;;15.02;6.53;;;6.30;99.90;;;;;;5077037;28;20123;-72
2022/01/18 09:47:44;;;;;;;21.25;7.65;;;6.40;99.90;;;;;;5076987;28;20395;-73
2022/01/18 09:50:11;;;;;;;26.02;7.53;;;6.30;99.90;;;;;;5060263;28;20051;-74
2022/01/18 09:52:38;;;;;;;15.07;6.35;;;6.30;99.90;;;;;;5060100;28;20047;-73
2022/01/18 09:55:06;;;;;;;12.95;3.83;;;6.30;99.90;;;;;;5076798;28;20074;-74
2022/01/18 09:57:32;;;;;;;9.52;4.10;;;6.40;99.90;;;;;;5076918;28;20050;-74
2022/01/18 09:59:59;;;;;;;15.48;5.25;;;6.40;99.90;;;;;;5076577;28;20039;-74
2022/01/18 10:02:25;;;;;;;21.00;6.30;;;6.40;99.90;;;;;;5057374;28;20043;-74
2022/01/18 10:04:53;;;;;;;26.83;8.18;;;6.40;99.90;;;;;;5076500;28;20039;-74
2022/01/18 10:07:31;;;;;;;23.90;9.60;;;6.40;99.90;;;;;;5076417;28;20110;-74
2022/01/18 10:09:59;;;;;;;22.10;7.80;;;6.40;99.90;;;;;;5060095;28;20043;-74
2022/01/18 10:12:24;;;;;;;21.60;6.47;;;6.40;99.90;;;;;;5076651;28;20476;-74
2022/01/18 10:14:56;;;;;;;28.40;9.27;;;6.40;99.90;;;;;;5059894;28;20083;-74
2022/01/18 10:17:37;;;;;;;16.73;5.40;;;6.50;99.90;;;;;;5059614;28;20036;-74
2022/01/18 10:20:07;;;;;;;;;;;6.60;99.90;;;;;;5076569;28;20036;-74
2022/01/18 10:22:40;;;;;;;8.85;3.92;;;6.70;99.90;;;;;;5059445;28;19923;-74
2022/01/18 10:25:19;;;;;;;13.25;4.90;;;6.70;99.90;;;;;;5076435;28;20179;-74
2022/01/18 10:27:47;;;;;;;19.23;5.28;;;6.70;99.90;;;;;;5055003;28;20033;-74
2022/01/18 10:30:20;;;;;;;11.90;4.13;;;6.70;99.90;;;;;;5056182;28;20098;-73
2022/01/18 10:33:01;;;;;;;12.73;4.43;;;6.70;99.90;;;;;;5036970;28;20492;-74
2022/01/18 10:35:27;;;;;;;12.77;5.15;;;6.70;99.90;;;;;;5039616;28;20052;-74
2022/01/18 10:37:53;;;;;;;21.40;6.47;;;6.70;99.90;;;;;;5055795;28;20055;-74
2022/01/18 10:40:19;;;;;;;9.65;4.90;;;6.70;99.90;;;;;;5056158;28;20125;-75
2022/01/18 10:42:48;;;;;;;13.10;6.20;;;6.70;99.90;;;;;;5055672;28;20052;-75
2022/01/18 10:45:19;;;;;;;16.40;6.32;;;6.80;99.90;;;;;;5039487;28;20048;-75
2022/01/18 10:47:57;;;;;;;16.02;6.65;;;6.80;99.90;;;;;;5055694;28;20043;-74
2022/01/18 10:50:25;;;;;;;16.75;6.55;;;6.80;99.90;;;;;;5055740;28;20527;-75
2022/01/18 10:52:53;;;;;;;24.63;8.15;;;6.80;99.90;;;;;;5038934;28;20288;-75
2022/01/18 10:55:21;;;;;;;19.17;6.13;;;6.90;99.90;;;;;;5055390;28;20044;-74
2022/01/18 10:57:48;;;;;;;17.35;7.60;;;6.90;99.90;;;;;;5055442;28;20078;-75
2022/01/18 11:00:22;;;;;;;20.10;8.35;;;6.90;99.90;;;;;;5038933;28;20040;-75
2022/01/18 11:02:51;;;;;;;20.77;8.30;;;6.90;99.90;;;;;;5036174;28;20040;-75
2022/01/18 11:05:31;;;;;;;21.60;8.40;;;6.90;99.90;;;;;;5038849;28;20076;-75
2022/01/18 11:08:02;;;;;;;18.33;7.15;;;6.90;99.90;;;;;;5055675;28;20067;-75
2022/01/18 11:10:42;;;;;;;21.83;8.02;;;7.00;99.90;;;;;;5055270;28;20119;-74
2022/01/18 11:13:17;;;;;;;14.43;6.45;;;6.90;99.90;;;;;;5054993;28;20048;-75
2022/01/18 11:15:46;;;;;;;16.67;5.53;;;6.90;99.90;;;;;;5039018;28;20442;-75
2022/01/18 11:18:25;;;;;;;13.13;5.00;;;6.90;99.90;;;;;;5038436;28;20492;-75
2022/01/18 11:20:52;;;;;;;14.60;4.60;;;6.90;99.90;;;;;;5047091;28;20082;-75
2022/01/18 11:23:30;;;;;;;13.45;5.40;;;6.80;99.90;;;;;;5078120;28;20056;-75
2022/01/18 11:25:58;;;;;;;10.80;4.47;;;6.80;99.90;;;;;;5092346;28;20040;-75
2022/01/18 11:28:26;;;;;;;10.80;5.05;;;6.80;99.90;;;;;;5068868;28;20133;-75
2022/01/18 11:30:52;;;;;;;18.65;8.07;;;6.80;99.90;;;;;;5074950;28;20105;-75
2022/01/18 11:33:22;;;;;;;14.52;6.30;;;6.80;99.90;;;;;;5072775;28;20094;-75
2022/01/18 11:36:10;;;;;;;17.95;7.03;;;6.80;99.90;;;;;;5057890;28;20069;-75
2022/01/18 11:38:36;;;;;;;20.35;7.43;;;6.80;99.90;;;;;;5074646;28;20126;-75
2022/01/18 11:41:02;;;;;;;17.58;6.03;;;6.70;99.90;;;;;;5074740;28;20127;-75
2022/01/18 11:43:43;;;;;;;14.98;6.80;;;6.70;99.90;;;;;;5074741;28;20040;-75
2022/01/18 11:46:35;;;;;;;21.55;7.03;;;6.70;99.90;;;;;;5074990;28;20081;-75
2022/01/18 11:49:06;;;;;;;17.73;7.45;;;6.70;99.90;;;;;;5057830;28;20040;-76
2022/01/18 11:51:54;;;;;;;18.98;6.40;;;6.70;99.90;;;;;;5057939;28;20068;-76
2022/01/18 11:57:24;;;;;;;11.23;5.47;;;6.90;99.90;;;;;;5074661;28;20058;-76
2022/01/18 11:59:55;;;;;;;13.20;5.63;;;6.90;99.90;;;;;;5074204;28;20507;-76
2022/01/18 12:02:40;;;;;;;12.10;5.72;;;6.80;99.90;;;;;;5055296;28;20522;-74
2022/01/18 12:05:14;;;;;;;12.95;5.47;;;6.80;99.90;;;;;;5074288;28;20079;-75
2022/01/18 12:07:41;;;;;;;14.75;5.88;;;6.80;99.90;;;;;;5073675;28;20087;-75
2022/01/18 12:10:08;;;;;;;12.27;6.05;;;6.70;99.90;;;;;;5074493;28;20039;-75
2022/01/18 12:12:48;;;;;;;9.45;4.95;;;6.70;99.90;;;;;;5074300;28;20036;-75
2022/01/18 12:15:18;;;;;;;10.48;3.25;;;6.70;99.90;;;;;;5074181;28;20531;-75
2022/01/18 12:17:49;;;;;;;8.63;3.50;;;6.70;99.90;;;;;;5074441;28;20396;-75
2022/01/18 12:20:37;;;;;;;10.35;4.43;;;6.60;99.90;;;;;;5074119;28;20055;-75
2022/01/18 12:23:09;;;;;;;12.07;5.70;;;6.50;99.90;;;;;;5057299;28;20055;-76
2022/01/18 12:25:37;;;;;;;17.33;5.97;;;6.50;99.90;;;;;;5057408;28;20037;-75
2022/01/18 12:28:47;;;;;;;12.15;6.15;;;6.40;99.90;;;;;;5062633;28;20120;-76
2022/01/18 12:34:31;;;;;;;15.70;6.32;;;6.40;99.90;;;;;;5074628;28;20046;-76
2022/01/18 12:37:06;;;;;;;11.75;5.13;;;6.40;99.90;;;;;;5057979;28;20070;-75
2022/01/18 12:39:54;;;;;;;13.50;6.20;;;6.50;99.90;;;;;;5058022;28;20055;-75
2022/01/18 12:45:16;;;;;;;14.82;5.82;;;6.60;99.90;;;;;;5074650;28;20130;-76
2022/01/18 12:47:42;;;;;;;17.38;6.95;;;6.60;99.90;;;;;;5074623;28;20465;-75
2022/01/18 12:50:10;;;;;;;15.70;6.45;;;6.50;99.90;;;;;;5074319;28;20036;-76
2022/01/18 12:52:51;;;;;;;15.98;6.32;;;6.50;99.90;;;;;;5072564;28;20408;-75
2022/01/18 12:55:30;;;;;;;13.73;5.55;;;6.50;99.90;;;;;;5071123;28;20408;-76
2022/01/18 12:58:01;;;;;;;11.15;4.82;;;6.50;99.90;;;;;;5073546;28;20036;-76
2022/01/18 13:00:27;;;;;;;15.10;5.35;;;6.50;99.90;;;;;;5073459;28;20043;-76
2022/01/18 13:03:01;;;;;;;12.18;5.25;;;6.50;99.90;;;;;;5054288;28;20059;-76
2022/01/18 13:05:39;;;;;;;11.32;5.13;;;6.50;99.90;;;;;;5073491;28;20560;-76
2022/01/18 13:08:06;;;;;;;11.85;5.55;;;6.50;99.90;;;;;;5073579;28;20041;-76
2022/01/18 13:10:45;;;;;;;13.80;5.93;;;6.50;99.90;;;;;;5073493;28;20075;-75
2022/01/18 13:13:14;;;;;;;15.93;5.40;;;6.40;99.90;;;;;;5073377;28;20047;-75
2022/01/18 13:26:51;;;;;;;21.20;8.68;;;6.20;99.90;;;;;;5074248;28;20255;-74
2022/01/18 13:29:21;;;;;;;23.23;8.57;;;6.30;99.90;;;;;;5043559;28;20036;-74
2022/01/18 13:32:19;;;;;;;41.60;9.90;;;6.20;99.90;;;;;;5038048;28;20037;-75
2022/01/18 13:34:51;;;;;;;45.10;12.85;;;6.10;99.90;;;;;;5056826;28;20066;-77
2022/01/18 13:37:19;;;;;;;47.08;13.27;;;6.10;99.90;;;;;;5056840;28;20040;-74
2022/01/18 13:39:50;;;;;;;60.22;18.42;;;6.00;99.90;;;;;;5056968;28;20036;-74
2022/01/18 13:42:21;;;;;;;80.05;25.98;;;6.00;99.90;;;;;;5057199;28;20037;-73
2022/01/18 13:45:06;;;;;;;89.13;28.33;;;5.90;99.90;;;;;;5040156;28;20048;-77
2022/01/18 13:47:53;;;;;;;40.40;14.90;;;5.90;99.90;;;;;;5056815;28;20046;-76
2022/01/18 13:50:43;;;;;;;34.55;11.27;;;5.90;99.90;;;;;;5056728;28;20056;-72
2022/01/18 13:53:18;;;;;;;38.58;10.70;;;5.90;99.90;;;;;;5057165;28;20395;-76
2022/01/18 13:55:52;;;;;;;43.05;11.15;;;5.90;99.90;;;;;;5040235;28;20396;-74
2022/01/18 13:58:33;;;;;;;33.97;12.85;;;5.90;99.90;;;;;;5040118;28;20044;-75
2022/01/18 14:01:20;;;;;;;37.15;12.38;;;5.90;99.90;;;;;;5040218;28;20080;-75
2022/01/18 14:03:58;;;;;;;30.83;11.98;;;5.90;99.90;;;;;;5037891;28;20377;-76
2022/01/18 14:06:36;;;;;;;32.33;13.02;;;5.90;99.90;;;;;;5056371;28;20040;-74
2022/01/18 14:09:02;;;;;;;44.88;14.90;;;5.80;99.90;;;;;;5040350;28;20435;-74
2022/01/18 14:11:31;;;;;;;43.67;14.50;;;5.80;99.90;;;;;;5056369;28;20082;-74